sensor_id;sensor_type;location;lat;lon;timestamp;pressure;altitude;pressure_sealevel;temperature;humidity
77235;BME280;66253;50.526;14.974;2023-05-16T00:02:38;98565.70;;;9.00;81.14
77235;BME280;66253;50.526;14.974;2023-05-16T00:05:27;98563.39;;;8.99;81.27
77235;BME280;66253;50.526;14.974;2023-05-16T00:08:15;98564.01;;;8.97;81.36
77235;BME280;66253;50.526;14.974;2023-05-16T00:11:04;98558.38;;;8.94;81.31
77235;BME280;66253;50.526;14.974;2023-05-16T00:13:53;98566.20;;;8.91;81.70
77235;BME280;66253;50.526;14.974;2023-05-16T00:16:41;98564.16;;;8.89;81.57
77235;BME280;66253;50.526;14.974;2023-05-16T00:19:30;98562.88;;;8.84;81.89
77235;BME280;66253;50.526;14.974;2023-05-16T00:22:18;98560.96;;;8.82;81.89
77235;BME280;66253;50.526;14.974;2023-05-16T00:25:08;98561.63;;;8.79;82.01
77235;BME280;66253;50.526;14.974;2023-05-16T00:27:55;98563.33;;;8.77;81.83
77235;BME280;66253;50.526;14.974;2023-05-16T00:30:43;98570.86;;;8.73;82.04
77235;BME280;66253;50.526;14.974;2023-05-16T00:33:33;98580.70;;;8.68;82.42
77235;BME280;66253;50.526;14.974;2023-05-16T00:36:22;98583.46;;;8.64;82.35
77235;BME280;66253;50.526;14.974;2023-05-16T00:39:10;98584.16;;;8.61;82.59
77235;BME280;66253;50.526;14.974;2023-05-16T00:41:59;98582.20;;;8.59;82.86
77235;BME280;66253;50.526;14.974;2023-05-16T00:44:41;98583.66;;;8.58;82.79
77235;BME280;66253;50.526;14.974;2023-05-16T00:47:29;98581.61;;;8.58;82.89
77235;BME280;66253;50.526;14.974;2023-05-16T00:50:18;98581.49;;;8.60;83.22
77235;BME280;66253;50.526;14.974;2023-05-16T00:53:07;98579.59;;;8.63;83.46
77235;BME280;66253;50.526;14.974;2023-05-16T00:55:56;98581.19;;;8.65;83.37
77235;BME280;66253;50.526;14.974;2023-05-16T00:58:44;98579.56;;;8.66;83.60
77235;BME280;66253;50.526;14.974;2023-05-16T01:01:33;98578.89;;;8.66;83.60
77235;BME280;66253;50.526;14.974;2023-05-16T01:04:23;98577.67;;;8.67;83.62
77235;BME280;66253;50.526;14.974;2023-05-16T01:07:11;98585.34;;;8.67;83.46
77235;BME280;66253;50.526;14.974;2023-05-16T01:10:00;98584.69;;;8.67;83.51
77235;BME280;66253;50.526;14.974;2023-05-16T01:12:50;98579.30;;;8.68;83.72
77235;BME280;66253;50.526;14.974;2023-05-16T01:15:49;98582.44;;;8.70;83.45
77235;BME280;66253;50.526;14.974;2023-05-16T01:18:56;98589.42;;;8.70;83.51
77235;BME280;66253;50.526;14.974;2023-05-16T01:21:52;98599.39;;;8.72;83.60
77235;BME280;66253;50.526;14.974;2023-05-16T01:24:59;98603.70;;;8.74;83.67
77235;BME280;66253;50.526;14.974;2023-05-16T01:27:48;98605.73;;;8.76;83.39
77235;BME280;66253;50.526;14.974;2023-05-16T01:30:38;98607.88;;;8.78;83.58
77235;BME280;66253;50.526;14.974;2023-05-16T01:33:27;98605.30;;;8.78;83.61
77235;BME280;66253;50.526;14.974;2023-05-16T01:36:23;98609.02;;;8.79;83.32
77235;BME280;66253;50.526;14.974;2023-05-16T01:39:16;98607.92;;;8.80;83.43
77235;BME280;66253;50.526;14.974;2023-05-16T01:42:09;98608.89;;;8.81;83.11
77235;BME280;66253;50.526;14.974;2023-05-16T01:45:07;98606.81;;;8.82;82.93
77235;BME280;66253;50.526;14.974;2023-05-16T01:48:03;98613.87;;;8.80;82.88
77235;BME280;66253;50.526;14.974;2023-05-16T01:50:54;98617.29;;;8.80;82.85
77235;BME280;66253;50.526;14.974;2023-05-16T01:53:44;98621.35;;;8.80;82.63
77235;BME280;66253;50.526;14.974;2023-05-16T01:56:33;98621.00;;;8.81;82.62
77235;BME280;66253;50.526;14.974;2023-05-16T01:59:24;98625.23;;;8.81;83.01
77235;BME280;66253;50.526;14.974;2023-05-16T02:02:13;98626.77;;;8.81;82.94
77235;BME280;66253;50.526;14.974;2023-05-16T02:05:05;98631.11;;;8.80;82.82
77235;BME280;66253;50.526;14.974;2023-05-16T02:07:52;98636.62;;;8.78;82.70
77235;BME280;66253;50.526;14.974;2023-05-16T02:10:41;98635.48;;;8.77;82.73
77235;BME280;66253;50.526;14.974;2023-05-16T02:13:23;98639.11;;;8.77;82.81
77235;BME280;66253;50.526;14.974;2023-05-16T02:16:12;98641.17;;;8.74;82.75
77235;BME280;66253;50.526;14.974;2023-05-16T02:19:00;98640.95;;;8.71;82.67
77235;BME280;66253;50.526;14.974;2023-05-16T02:21:49;98636.02;;;8.68;82.70
77235;BME280;66253;50.526;14.974;2023-05-16T02:24:38;98638.79;;;8.67;82.98
77235;BME280;66253;50.526;14.974;2023-05-16T02:27:25;98635.45;;;8.66;82.82
77235;BME280;66253;50.526;14.974;2023-05-16T02:30:14;98632.29;;;8.65;82.75
77235;BME280;66253;50.526;14.974;2023-05-16T02:33:03;98627.48;;;8.63;83.00
77235;BME280;66253;50.526;14.974;2023-05-16T02:35:50;98625.95;;;8.59;82.90
77235;BME280;66253;50.526;14.974;2023-05-16T02:38:39;98624.27;;;8.56;82.89
77235;BME280;66253;50.526;14.974;2023-05-16T02:41:27;98627.02;;;8.53;83.06
77235;BME280;66253;50.526;14.974;2023-05-16T02:44:16;98627.48;;;8.51;83.04
77235;BME280;66253;50.526;14.974;2023-05-16T02:47:05;98622.49;;;8.45;83.07
77235;BME280;66253;50.526;14.974;2023-05-16T02:49:53;98630.25;;;8.41;83.02
77235;BME280;66253;50.526;14.974;2023-05-16T02:52:42;98633.63;;;8.38;83.08
77235;BME280;66253;50.526;14.974;2023-05-16T02:55:30;98634.02;;;8.37;83.19
77235;BME280;66253;50.526;14.974;2023-05-16T02:58:19;98641.64;;;8.31;82.79
77235;BME280;66253;50.526;14.974;2023-05-16T03:01:07;98643.52;;;8.25;82.76
77235;BME280;66253;50.526;14.974;2023-05-16T03:03:56;98644.76;;;8.18;82.59
77235;BME280;66253;50.526;14.974;2023-05-16T03:06:45;98649.48;;;8.12;82.77
77235;BME280;66253;50.526;14.974;2023-05-16T03:09:33;98645.23;;;8.09;82.70
77235;BME280;66253;50.526;14.974;2023-05-16T03:12:22;98642.23;;;8.08;83.12
77235;BME280;66253;50.526;14.974;2023-05-16T03:15:11;98636.48;;;8.08;83.23
77235;BME280;66253;50.526;14.974;2023-05-16T03:17:59;98633.80;;;8.07;83.11
77235;BME280;66253;50.526;14.974;2023-05-16T03:20:48;98623.59;;;8.04;83.15
77235;BME280;66253;50.526;14.974;2023-05-16T03:23:36;98621.85;;;8.02;82.87
77235;BME280;66253;50.526;14.974;2023-05-16T03:26:25;98617.98;;;7.98;83.14
77235;BME280;66253;50.526;14.974;2023-05-16T03:29:14;98614.06;;;7.95;82.86
77235;BME280;66253;50.526;14.974;2023-05-16T03:32:03;98611.81;;;7.93;82.95
77235;BME280;66253;50.526;14.974;2023-05-16T03:34:52;98608.95;;;7.92;82.88
77235;BME280;66253;50.526;14.974;2023-05-16T03:37:40;98612.59;;;7.90;82.90
77235;BME280;66253;50.526;14.974;2023-05-16T03:40:29;98616.73;;;7.90;82.41
77235;BME280;66253;50.526;14.974;2023-05-16T03:43:18;98623.22;;;7.89;82.63
77235;BME280;66253;50.526;14.974;2023-05-16T03:46:06;98623.69;;;7.90;82.68
77235;BME280;66253;50.526;14.974;2023-05-16T03:48:55;98631.92;;;7.92;82.78
77235;BME280;66253;50.526;14.974;2023-05-16T03:51:43;98634.73;;;7.93;82.68
77235;BME280;66253;50.526;14.974;2023-05-16T03:54:32;98638.66;;;7.93;82.19
77235;BME280;66253;50.526;14.974;2023-05-16T03:57:21;98650.30;;;7.95;82.40
77235;BME280;66253;50.526;14.974;2023-05-16T04:00:11;98653.03;;;7.97;82.23
77235;BME280;66253;50.526;14.974;2023-05-16T04:02:59;98659.65;;;8.01;82.20
77235;BME280;66253;50.526;14.974;2023-05-16T04:05:48;98664.31;;;8.06;82.46
77235;BME280;66253;50.526;14.974;2023-05-16T04:08:37;98672.85;;;8.11;82.31
77235;BME280;66253;50.526;14.974;2023-05-16T04:11:25;98682.38;;;8.17;82.50
77235;BME280;66253;50.526;14.974;2023-05-16T04:14:14;98685.52;;;8.25;82.54
77235;BME280;66253;50.526;14.974;2023-05-16T04:17:02;98684.66;;;8.32;82.69
77235;BME280;66253;50.526;14.974;2023-05-16T04:19:51;98684.59;;;8.36;82.59
77235;BME280;66253;50.526;14.974;2023-05-16T04:22:40;98686.96;;;8.43;82.63
77235;BME280;66253;50.526;14.974;2023-05-16T04:25:28;98689.48;;;8.50;82.51
77235;BME280;66253;50.526;14.974;2023-05-16T04:28:17;98695.19;;;8.54;82.67
77235;BME280;66253;50.526;14.974;2023-05-16T04:31:05;98697.82;;;8.59;82.81
77235;BME280;66253;50.526;14.974;2023-05-16T04:33:54;98698.52;;;8.64;82.87
77235;BME280;66253;50.526;14.974;2023-05-16T04:36:43;98700.81;;;8.72;83.18
77235;BME280;66253;50.526;14.974;2023-05-16T04:39:31;98703.56;;;8.81;83.46
77235;BME280;66253;50.526;14.974;2023-05-16T04:42:20;98708.39;;;8.89;82.84
77235;BME280;66253;50.526;14.974;2023-05-16T04:45:10;98716.85;;;8.96;83.11
77235;BME280;66253;50.526;14.974;2023-05-16T04:47:59;98711.22;;;9.02;83.25
77235;BME280;66253;50.526;14.974;2023-05-16T04:50:47;98714.10;;;9.08;83.06
77235;BME280;66253;50.526;14.974;2023-05-16T04:53:36;98716.41;;;9.12;82.73
77235;BME280;66253;50.526;14.974;2023-05-16T04:56:25;98713.71;;;9.18;82.64
77235;BME280;66253;50.526;14.974;2023-05-16T04:59:13;98715.60;;;9.24;82.97
77235;BME280;66253;50.526;14.974;2023-05-16T05:02:02;98717.76;;;9.30;82.75
77235;BME280;66253;50.526;14.974;2023-05-16T05:04:52;98716.56;;;9.36;83.07
77235;BME280;66253;50.526;14.974;2023-05-16T05:07:39;98718.05;;;9.42;82.21
77235;BME280;66253;50.526;14.974;2023-05-16T05:10:27;98729.25;;;9.49;82.71
77235;BME280;66253;50.526;14.974;2023-05-16T05:13:16;98741.34;;;9.55;82.41
77235;BME280;66253;50.526;14.974;2023-05-16T05:16:05;98746.68;;;9.62;82.68
77235;BME280;66253;50.526;14.974;2023-05-16T05:18:53;98740.67;;;9.72;82.59
77235;BME280;66253;50.526;14.974;2023-05-16T05:21:25;98738.75;;;9.81;82.24
77235;BME280;66253;50.526;14.974;2023-05-16T05:24:13;98739.50;;;9.91;82.27
77235;BME280;66253;50.526;14.974;2023-05-16T05:27:02;98744.41;;;10.00;81.72
77235;BME280;66253;50.526;14.974;2023-05-16T05:29:51;98749.51;;;10.12;82.07
77235;BME280;66253;50.526;14.974;2023-05-16T05:32:39;98751.30;;;10.36;81.89
77235;BME280;66253;50.526;14.974;2023-05-16T05:35:28;98744.73;;;10.59;81.52
77235;BME280;66253;50.526;14.974;2023-05-16T05:38:16;98741.84;;;10.88;80.44
77235;BME280;66253;50.526;14.974;2023-05-16T05:41:05;98740.00;;;11.37;80.06
77235;BME280;66253;50.526;14.974;2023-05-16T05:43:54;98732.86;;;11.71;79.69
77235;BME280;66253;50.526;14.974;2023-05-16T05:46:43;98730.25;;;12.03;79.17
77235;BME280;66253;50.526;14.974;2023-05-16T05:49:30;98736.65;;;12.06;78.95
77235;BME280;66253;50.526;14.974;2023-05-16T05:52:19;98739.04;;;12.19;78.48
77235;BME280;66253;50.526;14.974;2023-05-16T05:55:07;98740.36;;;12.34;78.59
77235;BME280;66253;50.526;14.974;2023-05-16T05:57:56;98736.30;;;12.40;78.10
77235;BME280;66253;50.526;14.974;2023-05-16T06:00:44;98731.88;;;12.59;77.36
77235;BME280;66253;50.526;14.974;2023-05-16T06:03:32;98728.95;;;12.81;77.11
77235;BME280;66253;50.526;14.974;2023-05-16T06:06:21;98729.17;;;12.94;76.61
77235;BME280;66253;50.526;14.974;2023-05-16T06:09:10;98727.23;;;12.97;76.11
77235;BME280;66253;50.526;14.974;2023-05-16T06:11:58;98723.86;;;12.94;75.70
77235;BME280;66253;50.526;14.974;2023-05-16T06:14:47;98724.98;;;12.90;75.51
77235;BME280;66253;50.526;14.974;2023-05-16T06:17:35;98726.73;;;12.85;75.28
77235;BME280;66253;50.526;14.974;2023-05-16T06:20:24;98726.58;;;12.80;75.04
77235;BME280;66253;50.526;14.974;2023-05-16T06:23:13;98732.89;;;12.74;75.29
77235;BME280;66253;50.526;14.974;2023-05-16T06:26:01;98728.40;;;12.72;75.57
77235;BME280;66253;50.526;14.974;2023-05-16T06:28:50;98726.50;;;12.77;75.79
77235;BME280;66253;50.526;14.974;2023-05-16T06:31:39;98718.94;;;12.82;75.80
77235;BME280;66253;50.526;14.974;2023-05-16T06:34:27;98717.42;;;12.88;75.65
77235;BME280;66253;50.526;14.974;2023-05-16T06:37:16;98716.76;;;12.95;75.18
77235;BME280;66253;50.526;14.974;2023-05-16T06:40:06;98712.26;;;12.98;75.02
77235;BME280;66253;50.526;14.974;2023-05-16T06:42:54;98716.66;;;13.03;74.72
77235;BME280;66253;50.526;14.974;2023-05-16T06:45:44;98715.04;;;13.11;74.89
77235;BME280;66253;50.526;14.974;2023-05-16T06:48:25;98720.39;;;13.23;75.45
77235;BME280;66253;50.526;14.974;2023-05-16T06:51:14;98719.69;;;13.30;75.24
77235;BME280;66253;50.526;14.974;2023-05-16T06:54:02;98716.46;;;13.38;75.18
77235;BME280;66253;50.526;14.974;2023-05-16T06:56:51;98723.36;;;13.50;75.08
77235;BME280;66253;50.526;14.974;2023-05-16T06:59:40;98719.67;;;13.59;74.64
77235;BME280;66253;50.526;14.974;2023-05-16T07:02:28;98711.05;;;13.74;74.36
77235;BME280;66253;50.526;14.974;2023-05-16T07:05:17;98712.20;;;13.90;74.62
77235;BME280;66253;50.526;14.974;2023-05-16T07:08:04;98716.27;;;14.08;74.51
77235;BME280;66253;50.526;14.974;2023-05-16T07:10:53;98717.61;;;14.26;74.38
77235;BME280;66253;50.526;14.974;2023-05-16T07:13:42;98719.25;;;14.40;74.40
77235;BME280;66253;50.526;14.974;2023-05-16T07:16:30;98722.59;;;14.56;74.05
77235;BME280;66253;50.526;14.974;2023-05-16T07:19:18;98727.60;;;14.75;73.85
77235;BME280;66253;50.526;14.974;2023-05-16T07:22:07;98728.17;;;14.94;73.32
77235;BME280;66253;50.526;14.974;2023-05-16T07:24:54;98724.09;;;15.12;72.73
77235;BME280;66253;50.526;14.974;2023-05-16T07:27:43;98719.45;;;15.29;72.07
77235;BME280;66253;50.526;14.974;2023-05-16T07:30:20;98723.56;;;15.47;71.78
77235;BME280;66253;50.526;14.974;2023-05-16T07:33:09;98722.64;;;15.58;70.36
77235;BME280;66253;50.526;14.974;2023-05-16T07:35:57;98721.35;;;15.68;70.44
77235;BME280;66253;50.526;14.974;2023-05-16T07:38:46;98726.93;;;15.73;70.26
77235;BME280;66253;50.526;14.974;2023-05-16T07:41:35;98724.25;;;15.72;69.92
77235;BME280;66253;50.526;14.974;2023-05-16T07:44:23;98725.14;;;15.72;70.04
77235;BME280;66253;50.526;14.974;2023-05-16T07:47:12;98725.02;;;15.75;70.26
77235;BME280;66253;50.526;14.974;2023-05-16T07:50:00;98716.57;;;15.84;70.39
77235;BME280;66253;50.526;14.974;2023-05-16T07:52:49;98724.94;;;15.92;69.91
77235;BME280;66253;50.526;14.974;2023-05-16T07:55:37;98726.59;;;15.91;69.79
77235;BME280;66253;50.526;14.974;2023-05-16T07:58:26;98731.05;;;15.91;69.98
77235;BME280;66253;50.526;14.974;2023-05-16T08:01:15;98735.20;;;15.97;69.71
77235;BME280;66253;50.526;14.974;2023-05-16T08:04:04;98738.15;;;15.99;69.42
77235;BME280;66253;50.526;14.974;2023-05-16T08:06:53;98739.73;;;16.11;69.30
77235;BME280;66253;50.526;14.974;2023-05-16T08:09:41;98742.93;;;16.17;68.32
77235;BME280;66253;50.526;14.974;2023-05-16T08:12:30;98743.81;;;16.21;68.84
77235;BME280;66253;50.526;14.974;2023-05-16T08:15:19;98748.27;;;16.32;68.56
77235;BME280;66253;50.526;14.974;2023-05-16T08:18:12;98747.84;;;16.37;67.86
77235;BME280;66253;50.526;14.974;2023-05-16T08:21:00;98745.51;;;16.41;67.85
77235;BME280;66253;50.526;14.974;2023-05-16T08:23:48;98745.52;;;16.47;67.76
77235;BME280;66253;50.526;14.974;2023-05-16T08:26:37;98743.50;;;16.55;67.72
77235;BME280;66253;50.526;14.974;2023-05-16T08:29:15;98747.94;;;16.64;67.66
77235;BME280;66253;50.526;14.974;2023-05-16T08:32:04;98751.73;;;16.77;67.89
77235;BME280;66253;50.526;14.974;2023-05-16T08:34:53;98763.10;;;16.94;67.72
77235;BME280;66253;50.526;14.974;2023-05-16T08:37:27;98764.45;;;17.08;66.74
77235;BME280;66253;50.526;14.974;2023-05-16T08:40:15;98761.02;;;17.25;66.79
77235;BME280;66253;50.526;14.974;2023-05-16T08:42:58;98760.10;;;17.39;66.65
77235;BME280;66253;50.526;14.974;2023-05-16T08:45:35;98762.98;;;17.51;66.75
77235;BME280;66253;50.526;14.974;2023-05-16T08:48:24;98761.88;;;17.65;66.45
77235;BME280;66253;50.526;14.974;2023-05-16T08:50:56;98763.42;;;17.78;66.33
77235;BME280;66253;50.526;14.974;2023-05-16T08:53:41;98762.91;;;17.87;66.01
77235;BME280;66253;50.526;14.974;2023-05-16T08:56:23;98769.38;;;17.92;66.01
77235;BME280;66253;50.526;14.974;2023-05-16T08:59:01;98776.75;;;17.96;65.25
77235;BME280;66253;50.526;14.974;2023-05-16T09:01:50;98777.33;;;17.98;63.44
77235;BME280;66253;50.526;14.974;2023-05-16T09:04:27;98779.39;;;17.98;63.00
77235;BME280;66253;50.526;14.974;2023-05-16T09:06:58;98779.89;;;17.98;62.72
77235;BME280;66253;50.526;14.974;2023-05-16T09:09:47;98787.53;;;18.01;62.38
77235;BME280;66253;50.526;14.974;2023-05-16T09:12:15;98791.52;;;17.99;61.98
77235;BME280;66253;50.526;14.974;2023-05-16T09:15:05;98798.53;;;17.94;62.09
77235;BME280;66253;50.526;14.974;2023-05-16T09:17:55;98806.23;;;17.92;61.36
77235;BME280;66253;50.526;14.974;2023-05-16T09:20:48;98809.67;;;17.92;61.61
77235;BME280;66253;50.526;14.974;2023-05-16T09:23:28;98819.22;;;17.95;61.25
77235;BME280;66253;50.526;14.974;2023-05-16T09:25:59;98824.46;;;18.00;61.21
77235;BME280;66253;50.526;14.974;2023-05-16T09:28:48;98827.33;;;17.97;60.17
77235;BME280;66253;50.526;14.974;2023-05-16T09:31:23;98824.98;;;17.91;60.30
77235;BME280;66253;50.526;14.974;2023-05-16T09:33:52;98820.58;;;17.88;60.17
77235;BME280;66253;50.526;14.974;2023-05-16T09:36:40;98821.39;;;17.83;60.25
77235;BME280;66253;50.526;14.974;2023-05-16T09:39:29;98826.13;;;17.78;60.77
77235;BME280;66253;50.526;14.974;2023-05-16T09:42:12;98834.87;;;17.79;60.64
77235;BME280;66253;50.526;14.974;2023-05-16T09:45:01;98837.21;;;17.78;59.86
77235;BME280;66253;50.526;14.974;2023-05-16T09:47:49;98838.55;;;17.74;60.35
77235;BME280;66253;50.526;14.974;2023-05-16T09:50:36;98841.23;;;17.71;59.91
77235;BME280;66253;50.526;14.974;2023-05-16T09:53:28;98841.27;;;17.67;60.42
77235;BME280;66253;50.526;14.974;2023-05-16T09:56:17;98837.56;;;17.70;60.47
77235;BME280;66253;50.526;14.974;2023-05-16T09:58:57;98839.06;;;17.73;60.19
77235;BME280;66253;50.526;14.974;2023-05-16T10:01:37;98828.41;;;17.74;59.70
77235;BME280;66253;50.526;14.974;2023-05-16T10:04:26;98826.53;;;17.72;58.83
77235;BME280;66253;50.526;14.974;2023-05-16T10:07:15;98826.80;;;17.67;59.41
77235;BME280;66253;50.526;14.974;2023-05-16T10:09:55;98823.48;;;17.67;59.38
77235;BME280;66253;50.526;14.974;2023-05-16T10:12:31;98824.16;;;17.66;59.13
77235;BME280;66253;50.526;14.974;2023-05-16T10:15:21;98826.04;;;17.66;59.08
77235;BME280;66253;50.526;14.974;2023-05-16T10:18:02;98824.81;;;17.64;58.29
77235;BME280;66253;50.526;14.974;2023-05-16T10:20:53;98817.70;;;17.60;57.79
77235;BME280;66253;50.526;14.974;2023-05-16T10:23:29;98815.33;;;17.53;57.87
77235;BME280;66253;50.526;14.974;2023-05-16T10:26:03;98815.71;;;17.50;58.35
77235;BME280;66253;50.526;14.974;2023-05-16T10:28:43;98813.32;;;17.48;58.46
77235;BME280;66253;50.526;14.974;2023-05-16T10:31:11;98810.23;;;17.48;58.64
77235;BME280;66253;50.526;14.974;2023-05-16T10:33:59;98805.52;;;17.48;58.60
77235;BME280;66253;50.526;14.974;2023-05-16T10:36:48;98808.26;;;17.45;58.34
77235;BME280;66253;50.526;14.974;2023-05-16T10:39:35;98812.70;;;17.37;58.40
77235;BME280;66253;50.526;14.974;2023-05-16T10:42:24;98817.59;;;17.35;58.68
77235;BME280;66253;50.526;14.974;2023-05-16T10:45:20;98816.45;;;17.28;58.03
77235;BME280;66253;50.526;14.974;2023-05-16T10:48:00;98812.19;;;17.22;58.44
77235;BME280;66253;50.526;14.974;2023-05-16T10:50:49;98820.79;;;17.17;57.85
77235;BME280;66253;50.526;14.974;2023-05-16T10:53:32;98825.40;;;17.07;57.86
77235;BME280;66253;50.526;14.974;2023-05-16T10:56:24;98823.06;;;16.95;57.65
77235;BME280;66253;50.526;14.974;2023-05-16T10:59:25;98824.15;;;16.87;58.12
77235;BME280;66253;50.526;14.974;2023-05-16T11:02:05;98822.09;;;16.83;58.08
77235;BME280;66253;50.526;14.974;2023-05-16T11:05:16;98811.56;;;16.75;57.71
77235;BME280;66253;50.526;14.974;2023-05-16T11:08:06;98801.45;;;16.66;58.09
77235;BME280;66253;50.526;14.974;2023-05-16T11:14:20;98778.00;;;16.58;58.83
77235;BME280;66253;50.526;14.974;2023-05-16T11:17:11;98772.01;;;16.56;58.67
77235;BME280;66253;50.526;14.974;2023-05-16T11:19:59;98774.40;;;16.50;58.49
77235;BME280;66253;50.526;14.974;2023-05-16T11:22:48;98773.59;;;16.43;58.63
77235;BME280;66253;50.526;14.974;2023-05-16T11:25:37;98782.75;;;16.37;59.09
77235;BME280;66253;50.526;14.974;2023-05-16T11:28:24;98784.86;;;16.31;59.75
77235;BME280;66253;50.526;14.974;2023-05-16T11:30:58;98785.97;;;16.28;59.93
77235;BME280;66253;50.526;14.974;2023-05-16T11:33:47;98793.57;;;16.20;59.87
77235;BME280;66253;50.526;14.974;2023-05-16T11:36:37;98804.71;;;16.10;59.64
77235;BME280;66253;50.526;14.974;2023-05-16T11:39:25;98807.88;;;15.99;59.90
77235;BME280;66253;50.526;14.974;2023-05-16T11:42:14;98814.45;;;15.89;60.17
77235;BME280;66253;50.526;14.974;2023-05-16T11:45:11;98821.59;;;15.80;60.38
77235;BME280;66253;50.526;14.974;2023-05-16T11:48:02;98829.02;;;15.58;60.40
77235;BME280;66253;50.526;14.974;2023-05-16T11:50:51;98837.25;;;15.36;60.76
77235;BME280;66253;50.526;14.974;2023-05-16T11:53:40;98833.96;;;15.21;61.18
77235;BME280;66253;50.526;14.974;2023-05-16T11:56:28;98838.63;;;15.13;61.43
77235;BME280;66253;50.526;14.974;2023-05-16T11:59:17;98844.95;;;15.02;61.75
77235;BME280;66253;50.526;14.974;2023-05-16T12:02:06;98848.05;;;14.91;61.92
77235;BME280;66253;50.526;14.974;2023-05-16T12:04:55;98848.14;;;14.86;62.30
77235;BME280;66253;50.526;14.974;2023-05-16T12:07:45;98847.27;;;14.79;62.18
77235;BME280;66253;50.526;14.974;2023-05-16T12:10:34;98852.36;;;14.70;62.52
77235;BME280;66253;50.526;14.974;2023-05-16T12:13:23;98856.15;;;14.63;62.70
77235;BME280;66253;50.526;14.974;2023-05-16T12:16:13;98863.94;;;14.58;63.15
77235;BME280;66253;50.526;14.974;2023-05-16T12:19:02;98868.88;;;14.59;62.98
77235;BME280;66253;50.526;14.974;2023-05-16T12:21:33;98874.92;;;14.60;63.06
77235;BME280;66253;50.526;14.974;2023-05-16T12:24:21;98881.38;;;14.59;62.90
77235;BME280;66253;50.526;14.974;2023-05-16T12:27:09;98891.58;;;14.56;63.01
77235;BME280;66253;50.526;14.974;2023-05-16T12:29:59;98905.95;;;14.52;63.05
77235;BME280;66253;50.526;14.974;2023-05-16T12:32:52;98909.19;;;14.50;63.34
77235;BME280;66253;50.526;14.974;2023-05-16T12:35:33;98912.31;;;14.50;63.46
77235;BME280;66253;50.526;14.974;2023-05-16T12:38:22;98916.15;;;14.49;62.82
77235;BME280;66253;50.526;14.974;2023-05-16T12:41:11;98918.89;;;14.49;63.47
77235;BME280;66253;50.526;14.974;2023-05-16T12:44:14;98918.20;;;14.52;63.82
77235;BME280;66253;50.526;14.974;2023-05-16T12:47:03;98923.38;;;14.56;63.34
77235;BME280;66253;50.526;14.974;2023-05-16T12:49:58;98917.96;;;14.55;63.17
77235;BME280;66253;50.526;14.974;2023-05-16T12:52:49;98911.61;;;14.54;63.32
77235;BME280;66253;50.526;14.974;2023-05-16T12:55:38;98911.97;;;14.54;63.40
77235;BME280;66253;50.526;14.974;2023-05-16T12:58:27;98909.50;;;14.55;63.27
77235;BME280;66253;50.526;14.974;2023-05-16T13:01:17;98905.95;;;14.52;63.00
77235;BME280;66253;50.526;14.974;2023-05-16T13:03:46;98898.53;;;14.48;63.14
77235;BME280;66253;50.526;14.974;2023-05-16T13:06:26;98902.94;;;14.42;63.00
77235;BME280;66253;50.526;14.974;2023-05-16T13:09:06;98900.62;;;14.34;62.99
77235;BME280;66253;50.526;14.974;2023-05-16T13:11:48;98897.63;;;14.24;63.23
77235;BME280;66253;50.526;14.974;2023-05-16T13:18:11;98890.45;;;14.05;63.52
77235;BME280;66253;50.526;14.974;2023-05-16T13:20:39;98891.45;;;13.97;64.46
77235;BME280;66253;50.526;14.974;2023-05-16T13:23:28;98889.60;;;13.91;64.19
77235;BME280;66253;50.526;14.974;2023-05-16T13:26:15;98884.82;;;13.82;64.23
77235;BME280;66253;50.526;14.974;2023-05-16T13:29:04;98887.56;;;13.73;64.35
77235;BME280;66253;50.526;14.974;2023-05-16T13:31:52;98886.16;;;13.66;64.67
77235;BME280;66253;50.526;14.974;2023-05-16T13:34:41;98884.16;;;13.58;64.61
77235;BME280;66253;50.526;14.974;2023-05-16T13:37:25;98886.02;;;13.49;64.58
77235;BME280;66253;50.526;14.974;2023-05-16T13:40:06;98891.16;;;13.40;64.85
77235;BME280;66253;50.526;14.974;2023-05-16T13:42:55;98897.88;;;13.30;64.99
77235;BME280;66253;50.526;14.974;2023-05-16T13:45:44;98907.60;;;13.21;65.16
77235;BME280;66253;50.526;14.974;2023-05-16T13:48:32;98908.55;;;13.12;65.58
77235;BME280;66253;50.526;14.974;2023-05-16T13:51:14;98907.52;;;13.06;65.75
77235;BME280;66253;50.526;14.974;2023-05-16T13:54:02;98911.29;;;12.98;65.57
77235;BME280;66253;50.526;14.974;2023-05-16T13:56:49;98912.63;;;12.91;66.19
77235;BME280;66253;50.526;14.974;2023-05-16T13:59:38;98917.34;;;12.83;66.17
77235;BME280;66253;50.526;14.974;2023-05-16T14:02:26;98920.30;;;12.77;66.55
77235;BME280;66253;50.526;14.974;2023-05-16T14:05:15;98908.79;;;12.70;66.59
77235;BME280;66253;50.526;14.974;2023-05-16T14:08:04;98897.78;;;12.63;66.68
77235;BME280;66253;50.526;14.974;2023-05-16T14:10:52;98898.75;;;12.57;66.78
77235;BME280;66253;50.526;14.974;2023-05-16T14:13:41;98902.65;;;12.50;66.83
77235;BME280;66253;50.526;14.974;2023-05-16T14:16:29;98900.83;;;12.44;67.22
77235;BME280;66253;50.526;14.974;2023-05-16T14:19:18;98900.96;;;12.42;67.38
77235;BME280;66253;50.526;14.974;2023-05-16T14:21:49;98897.90;;;12.42;67.12
77235;BME280;66253;50.526;14.974;2023-05-16T14:24:38;98893.27;;;12.42;67.44
77235;BME280;66253;50.526;14.974;2023-05-16T14:27:26;98898.52;;;12.45;67.68
77235;BME280;66253;50.526;14.974;2023-05-16T14:30:15;98915.56;;;12.46;67.43
77235;BME280;66253;50.526;14.974;2023-05-16T14:32:56;98910.73;;;12.44;67.37
77235;BME280;66253;50.526;14.974;2023-05-16T14:38:48;98901.61;;;12.38;67.69
77235;BME280;66253;50.526;14.974;2023-05-16T14:41:16;98901.73;;;12.36;67.65
77235;BME280;66253;50.526;14.974;2023-05-16T14:43:57;98904.11;;;12.36;67.62
77235;BME280;66253;50.526;14.974;2023-05-16T14:46:38;98898.44;;;12.36;67.61
77235;BME280;66253;50.526;14.974;2023-05-16T14:49:27;98896.25;;;12.38;67.74